Airfield :
LOGIN :

Register | Disclaimer

   EN    FR    IT 

 










Legend :    VFR   Marginal VFR   IFR   Intensive IFR   Very Intensive IFR
Visi :
Ceiling :
>= 8 km
>= 3000ft
5 to 8 km
1000 to 3000 ft
1500m to 5 km
500 to 1000 ft
800 to 1500m
200 to 500 ft
< 800m
< 200 ft
Symbols :   Thunderstorms  Fog  Heavy snow  Heavy precipitations  Wind > 20 kt
SIGMETs :     Misc.  Thunderstorms  Icing  Turbulence  Mountain Waves  Volcanic Ashes







- Airport Elevation : 375 ft
- IATA code : MST


EHBK - Maastricht Aachen

CURRENT METAR :
  • 240525Z AUTO 32007KT 280V360 5000 RA FEW002 SCT003 BKN005 SCT015CB 08/08 Q1006 TEMPO 6000 DZRA

EXPIRED METARs :
  • 240455Z AUTO 33006KT 3800 SHRA SCT007 BKN009 BKN010 FEW015CB 08/07 Q1006 TEMPO 6000 DZRA
  • 240425Z AUTO 35003KT 310V020 4500 SHRA FEW006 BKN007 BKN009 FEW015CB 08/07 Q1005 REUP
  • 240355Z AUTO VRB02KT 4100 RA SCT009 BKN011 FEW015CB 08/07 Q1006
  • 240325Z AUTO VRB02KT 9999 FEW015CB SCT035 OVC048 08/07 Q1006 REDZ
  • 240255Z AUTO 23005KT 9000 -RADZ FEW015CB SCT021 BKN046 08/08 Q1007 RERA REDZ

TAF COR TAF EHBK
Valid from the 24 at 06:00 until the 25 at 12:00 UTC


240507Z 2406/2512 22006KT 8000 BKN007
TEMPO 2406/2413 3000 DZRA BKN003
BECMG 2411/2414 BKN015
PROB40
TEMPO 2418/2506 7000 -SHRA -RA BKN012 FEW020CB
BECMG 2501/2504 4000 BR BKN007
PROB40
TEMPO 2503/2509 2000 BKN004
BECMG 2509/2512 9999 NSW SCT015
No reported NOTAMs for that airfield.



MET'MAP, your aeronautical weather chart ! - Copyright ORBIFLY December 2007 - Disclaimer

ORBIFLY MET'MAP TEAM :

Programming & Development : Alexandra Zaïnal
Concept & Development : Baudouin d'Aumeries
Co-Development & Prog : Marc-Olivier Méhu
Technical & hardware support : Manuel Goepfert

Contact : metmap@orbifly.com




SOURCES & CREDITS :

   NOAA